sensor_id;sensor_type;location;lat;lon;timestamp;P1;durP1;ratioP1;P2;durP2;ratioP2
14611;SDS011;7392;52.078;11.650;2022-12-18T00:01:27;28.57;;;17.53;;
14611;SDS011;7392;52.078;11.650;2022-12-18T00:03:57;28.93;;;17.33;;
14611;SDS011;7392;52.078;11.650;2022-12-18T00:06:26;27.23;;;16.27;;
14611;SDS011;7392;52.078;11.650;2022-12-18T00:08:56;32.87;;;18.37;;
14611;SDS011;7392;52.078;11.650;2022-12-18T00:11:26;29.30;;;17.30;;
14611;SDS011;7392;52.078;11.650;2022-12-18T00:13:56;33.00;;;18.73;;
14611;SDS011;7392;52.078;11.650;2022-12-18T00:16:26;30.83;;;18.53;;
14611;SDS011;7392;52.078;11.650;2022-12-18T00:18:57;30.57;;;18.20;;
14611;SDS011;7392;52.078;11.650;2022-12-18T00:21:26;28.70;;;16.63;;
14611;SDS011;7392;52.078;11.650;2022-12-18T00:23:54;28.17;;;16.70;;
14611;SDS011;7392;52.078;11.650;2022-12-18T00:26:23;30.07;;;17.03;;
14611;SDS011;7392;52.078;11.650;2022-12-18T00:28:59;34.60;;;20.03;;
14611;SDS011;7392;52.078;11.650;2022-12-18T00:31:29;36.03;;;19.30;;
14611;SDS011;7392;52.078;11.650;2022-12-18T00:33:59;30.47;;;18.67;;
14611;SDS011;7392;52.078;11.650;2022-12-18T00:36:28;31.63;;;19.73;;
14611;SDS011;7392;52.078;11.650;2022-12-18T00:38:58;33.87;;;20.03;;
14611;SDS011;7392;52.078;11.650;2022-12-18T00:41:27;37.87;;;21.03;;
14611;SDS011;7392;52.078;11.650;2022-12-18T00:44:15;35.83;;;19.70;;
14611;SDS011;7392;52.078;11.650;2022-12-18T00:46:44;31.53;;;18.67;;
14611;SDS011;7392;52.078;11.650;2022-12-18T00:49:14;33.60;;;19.67;;
14611;SDS011;7392;52.078;11.650;2022-12-18T00:51:42;34.73;;;19.80;;
14611;SDS011;7392;52.078;11.650;2022-12-18T00:54:10;33.57;;;18.43;;
14611;SDS011;7392;52.078;11.650;2022-12-18T00:56:38;33.87;;;19.20;;
14611;SDS011;7392;52.078;11.650;2022-12-18T00:59:15;30.97;;;18.37;;
14611;SDS011;7392;52.078;11.650;2022-12-18T01:01:44;31.63;;;18.57;;
14611;SDS011;7392;52.078;11.650;2022-12-18T01:04:13;31.13;;;18.67;;
14611;SDS011;7392;52.078;11.650;2022-12-18T01:06:44;32.47;;;17.53;;
14611;SDS011;7392;52.078;11.650;2022-12-18T01:09:12;32.67;;;18.17;;
14611;SDS011;7392;52.078;11.650;2022-12-18T01:11:40;32.77;;;18.83;;
14611;SDS011;7392;52.078;11.650;2022-12-18T01:14:09;31.30;;;18.63;;
14611;SDS011;7392;52.078;11.650;2022-12-18T01:16:39;30.90;;;18.33;;
14611;SDS011;7392;52.078;11.650;2022-12-18T01:19:07;32.33;;;19.00;;
14611;SDS011;7392;52.078;11.650;2022-12-18T01:21:34;32.53;;;18.10;;
14611;SDS011;7392;52.078;11.650;2022-12-18T01:24:03;35.37;;;19.67;;
14611;SDS011;7392;52.078;11.650;2022-12-18T01:26:32;34.50;;;19.33;;
14611;SDS011;7392;52.078;11.650;2022-12-18T01:29:00;32.87;;;19.57;;
14611;SDS011;7392;52.078;11.650;2022-12-18T01:31:28;34.37;;;19.47;;
14611;SDS011;7392;52.078;11.650;2022-12-18T01:34:02;30.00;;;18.30;;
14611;SDS011;7392;52.078;11.650;2022-12-18T01:36:34;33.67;;;19.37;;
14611;SDS011;7392;52.078;11.650;2022-12-18T01:39:06;32.67;;;20.17;;
14611;SDS011;7392;52.078;11.650;2022-12-18T01:41:36;32.00;;;18.17;;
14611;SDS011;7392;52.078;11.650;2022-12-18T01:47:20;31.37;;;17.00;;
14611;SDS011;7392;52.078;11.650;2022-12-18T01:49:52;34.10;;;19.50;;
14611;SDS011;7392;52.078;11.650;2022-12-18T01:52:21;35.67;;;18.57;;
14611;SDS011;7392;52.078;11.650;2022-12-18T01:54:49;34.83;;;19.70;;
14611;SDS011;7392;52.078;11.650;2022-12-18T01:57:19;38.63;;;20.80;;
14611;SDS011;7392;52.078;11.650;2022-12-18T01:59:50;34.60;;;19.50;;
14611;SDS011;7392;52.078;11.650;2022-12-18T02:02:20;37.73;;;19.93;;
14611;SDS011;7392;52.078;11.650;2022-12-18T02:04:48;36.30;;;19.57;;
14611;SDS011;7392;52.078;11.650;2022-12-18T02:07:20;32.60;;;18.53;;
14611;SDS011;7392;52.078;11.650;2022-12-18T02:09:57;37.43;;;19.33;;
14611;SDS011;7392;52.078;11.650;2022-12-18T02:12:28;35.37;;;18.33;;
14611;SDS011;7392;52.078;11.650;2022-12-18T02:15:04;34.37;;;18.63;;
14611;SDS011;7392;52.078;11.650;2022-12-18T02:17:38;32.17;;;18.17;;
14611;SDS011;7392;52.078;11.650;2022-12-18T02:20:12;35.13;;;20.67;;
14611;SDS011;7392;52.078;11.650;2022-12-18T02:22:48;35.60;;;20.33;;
14611;SDS011;7392;52.078;11.650;2022-12-18T02:25:36;34.03;;;19.60;;
14611;SDS011;7392;52.078;11.650;2022-12-18T02:28:15;35.57;;;19.70;;
14611;SDS011;7392;52.078;11.650;2022-12-18T02:30:49;34.00;;;20.53;;
14611;SDS011;7392;52.078;11.650;2022-12-18T02:33:20;33.77;;;19.40;;
14611;SDS011;7392;52.078;11.650;2022-12-18T02:35:50;34.20;;;18.50;;
14611;SDS011;7392;52.078;11.650;2022-12-18T02:38:21;34.00;;;19.33;;
14611;SDS011;7392;52.078;11.650;2022-12-18T02:40:51;35.77;;;19.03;;
14611;SDS011;7392;52.078;11.650;2022-12-18T02:43:22;34.30;;;19.97;;
14611;SDS011;7392;52.078;11.650;2022-12-18T02:45:53;28.67;;;18.50;;
14611;SDS011;7392;52.078;11.650;2022-12-18T02:48:24;42.27;;;22.90;;
14611;SDS011;7392;52.078;11.650;2022-12-18T02:50:59;43.37;;;24.50;;
14611;SDS011;7392;52.078;11.650;2022-12-18T02:53:36;46.20;;;24.10;;
14611;SDS011;7392;52.078;11.650;2022-12-18T02:56:11;44.33;;;23.53;;
14611;SDS011;7392;52.078;11.650;2022-12-18T02:58:46;40.33;;;22.73;;
14611;SDS011;7392;52.078;11.650;2022-12-18T03:01:35;44.43;;;24.23;;
14611;SDS011;7392;52.078;11.650;2022-12-18T03:04:11;48.00;;;25.93;;
14611;SDS011;7392;52.078;11.650;2022-12-18T03:06:44;45.47;;;23.53;;
14611;SDS011;7392;52.078;11.650;2022-12-18T03:09:17;38.87;;;22.47;;
14611;SDS011;7392;52.078;11.650;2022-12-18T03:11:53;43.87;;;24.43;;
14611;SDS011;7392;52.078;11.650;2022-12-18T03:14:43;42.40;;;24.67;;
14611;SDS011;7392;52.078;11.650;2022-12-18T03:17:15;43.73;;;22.87;;
14611;SDS011;7392;52.078;11.650;2022-12-18T03:19:45;43.03;;;23.47;;
14611;SDS011;7392;52.078;11.650;2022-12-18T03:22:14;44.50;;;24.00;;
14611;SDS011;7392;52.078;11.650;2022-12-18T03:24:47;39.80;;;22.90;;
14611;SDS011;7392;52.078;11.650;2022-12-18T03:27:18;38.57;;;21.40;;
14611;SDS011;7392;52.078;11.650;2022-12-18T03:29:55;38.07;;;21.53;;
14611;SDS011;7392;52.078;11.650;2022-12-18T03:32:36;38.83;;;21.83;;
14611;SDS011;7392;52.078;11.650;2022-12-18T03:35:10;36.37;;;22.27;;
14611;SDS011;7392;52.078;11.650;2022-12-18T03:37:41;38.33;;;21.53;;
14611;SDS011;7392;52.078;11.650;2022-12-18T03:40:09;37.40;;;22.27;;
14611;SDS011;7392;52.078;11.650;2022-12-18T03:42:38;36.27;;;20.63;;
14611;SDS011;7392;52.078;11.650;2022-12-18T03:45:18;37.67;;;20.80;;
14611;SDS011;7392;52.078;11.650;2022-12-18T03:47:53;39.13;;;21.13;;
14611;SDS011;7392;52.078;11.650;2022-12-18T03:50:34;35.07;;;20.73;;
14611;SDS011;7392;52.078;11.650;2022-12-18T03:53:12;35.33;;;20.67;;
14611;SDS011;7392;52.078;11.650;2022-12-18T03:55:51;38.20;;;22.03;;
14611;SDS011;7392;52.078;11.650;2022-12-18T03:58:20;38.20;;;21.87;;
14611;SDS011;7392;52.078;11.650;2022-12-18T04:01:01;39.60;;;22.23;;
14611;SDS011;7392;52.078;11.650;2022-12-18T04:03:33;40.73;;;21.03;;
14611;SDS011;7392;52.078;11.650;2022-12-18T04:06:05;39.70;;;22.67;;
14611;SDS011;7392;52.078;11.650;2022-12-18T04:08:37;36.67;;;21.40;;
14611;SDS011;7392;52.078;11.650;2022-12-18T04:11:08;37.63;;;22.40;;
14611;SDS011;7392;52.078;11.650;2022-12-18T04:13:37;36.50;;;20.60;;
14611;SDS011;7392;52.078;11.650;2022-12-18T04:16:14;38.53;;;21.73;;
14611;SDS011;7392;52.078;11.650;2022-12-18T04:18:44;41.30;;;22.60;;
14611;SDS011;7392;52.078;11.650;2022-12-18T04:21:13;41.10;;;24.03;;
14611;SDS011;7392;52.078;11.650;2022-12-18T04:23:41;41.57;;;22.90;;
14611;SDS011;7392;52.078;11.650;2022-12-18T04:26:09;41.83;;;23.27;;
14611;SDS011;7392;52.078;11.650;2022-12-18T04:29:08;39.70;;;21.97;;
14611;SDS011;7392;52.078;11.650;2022-12-18T04:31:37;39.80;;;22.70;;
14611;SDS011;7392;52.078;11.650;2022-12-18T04:34:06;39.77;;;21.87;;
14611;SDS011;7392;52.078;11.650;2022-12-18T04:36:39;41.30;;;22.70;;
14611;SDS011;7392;52.078;11.650;2022-12-18T04:39:07;38.23;;;22.27;;
14611;SDS011;7392;52.078;11.650;2022-12-18T04:41:35;40.93;;;22.10;;
14611;SDS011;7392;52.078;11.650;2022-12-18T04:44:03;38.30;;;21.60;;
14611;SDS011;7392;52.078;11.650;2022-12-18T04:46:32;41.13;;;22.70;;
14611;SDS011;7392;52.078;11.650;2022-12-18T04:49:01;39.13;;;22.27;;
14611;SDS011;7392;52.078;11.650;2022-12-18T04:51:29;37.47;;;21.13;;
14611;SDS011;7392;52.078;11.650;2022-12-18T04:53:56;41.57;;;23.67;;
14611;SDS011;7392;52.078;11.650;2022-12-18T04:56:24;39.60;;;22.53;;
14611;SDS011;7392;52.078;11.650;2022-12-18T04:58:52;42.37;;;22.93;;
14611;SDS011;7392;52.078;11.650;2022-12-18T05:01:20;39.53;;;20.53;;
14611;SDS011;7392;52.078;11.650;2022-12-18T05:03:48;38.93;;;23.40;;
14611;SDS011;7392;52.078;11.650;2022-12-18T05:06:17;38.13;;;21.90;;
14611;SDS011;7392;52.078;11.650;2022-12-18T05:08:45;37.83;;;20.80;;
14611;SDS011;7392;52.078;11.650;2022-12-18T05:11:14;40.77;;;22.27;;
14611;SDS011;7392;52.078;11.650;2022-12-18T05:13:43;43.83;;;23.73;;
14611;SDS011;7392;52.078;11.650;2022-12-18T05:16:11;39.07;;;23.23;;
14611;SDS011;7392;52.078;11.650;2022-12-18T05:18:40;40.80;;;22.43;;
14611;SDS011;7392;52.078;11.650;2022-12-18T05:21:08;42.03;;;22.53;;
14611;SDS011;7392;52.078;11.650;2022-12-18T05:23:37;42.43;;;20.73;;
14611;SDS011;7392;52.078;11.650;2022-12-18T05:26:06;37.10;;;21.03;;
14611;SDS011;7392;52.078;11.650;2022-12-18T05:28:35;40.67;;;21.90;;
14611;SDS011;7392;52.078;11.650;2022-12-18T05:31:04;45.90;;;24.90;;
14611;SDS011;7392;52.078;11.650;2022-12-18T05:33:33;41.07;;;22.97;;
14611;SDS011;7392;52.078;11.650;2022-12-18T05:36:02;46.47;;;24.70;;
14611;SDS011;7392;52.078;11.650;2022-12-18T05:38:32;42.33;;;23.07;;
14611;SDS011;7392;52.078;11.650;2022-12-18T05:41:03;42.40;;;23.03;;
14611;SDS011;7392;52.078;11.650;2022-12-18T05:43:33;53.90;;;26.77;;
14611;SDS011;7392;52.078;11.650;2022-12-18T05:46:05;46.00;;;24.67;;
14611;SDS011;7392;52.078;11.650;2022-12-18T05:48:34;44.20;;;23.73;;
14611;SDS011;7392;52.078;11.650;2022-12-18T05:51:05;50.10;;;25.77;;
14611;SDS011;7392;52.078;11.650;2022-12-18T05:53:36;46.97;;;24.33;;
14611;SDS011;7392;52.078;11.650;2022-12-18T05:56:07;43.77;;;24.33;;
14611;SDS011;7392;52.078;11.650;2022-12-18T05:58:37;44.93;;;24.23;;
14611;SDS011;7392;52.078;11.650;2022-12-18T06:01:08;42.80;;;24.27;;
14611;SDS011;7392;52.078;11.650;2022-12-18T06:03:39;39.30;;;22.30;;
14611;SDS011;7392;52.078;11.650;2022-12-18T06:06:14;40.57;;;24.10;;
14611;SDS011;7392;52.078;11.650;2022-12-18T06:08:44;38.67;;;22.57;;
14611;SDS011;7392;52.078;11.650;2022-12-18T06:11:15;43.33;;;23.40;;
14611;SDS011;7392;52.078;11.650;2022-12-18T06:13:44;41.53;;;23.67;;
14611;SDS011;7392;52.078;11.650;2022-12-18T06:16:12;46.80;;;26.10;;
14611;SDS011;7392;52.078;11.650;2022-12-18T06:18:40;45.10;;;25.27;;
14611;SDS011;7392;52.078;11.650;2022-12-18T06:21:08;42.10;;;24.23;;
14611;SDS011;7392;52.078;11.650;2022-12-18T06:23:36;43.00;;;24.03;;
14611;SDS011;7392;52.078;11.650;2022-12-18T06:26:05;46.23;;;24.73;;
14611;SDS011;7392;52.078;11.650;2022-12-18T06:28:35;43.83;;;25.00;;
14611;SDS011;7392;52.078;11.650;2022-12-18T06:31:03;45.63;;;25.20;;
14611;SDS011;7392;52.078;11.650;2022-12-18T06:33:32;41.40;;;24.43;;
14611;SDS011;7392;52.078;11.650;2022-12-18T06:36:00;45.37;;;25.43;;
14611;SDS011;7392;52.078;11.650;2022-12-18T06:38:29;49.03;;;25.87;;
14611;SDS011;7392;52.078;11.650;2022-12-18T06:40:58;49.33;;;25.80;;
14611;SDS011;7392;52.078;11.650;2022-12-18T06:43:26;48.13;;;25.57;;
14611;SDS011;7392;52.078;11.650;2022-12-18T06:45:58;53.07;;;27.03;;
14611;SDS011;7392;52.078;11.650;2022-12-18T06:48:27;43.97;;;24.20;;
14611;SDS011;7392;52.078;11.650;2022-12-18T06:50:55;47.43;;;25.77;;
14611;SDS011;7392;52.078;11.650;2022-12-18T06:53:23;47.53;;;24.90;;
14611;SDS011;7392;52.078;11.650;2022-12-18T06:55:51;44.70;;;23.17;;
14611;SDS011;7392;52.078;11.650;2022-12-18T06:58:18;45.63;;;24.30;;
14611;SDS011;7392;52.078;11.650;2022-12-18T07:00:46;48.93;;;26.13;;
14611;SDS011;7392;52.078;11.650;2022-12-18T07:03:16;49.90;;;27.20;;
14611;SDS011;7392;52.078;11.650;2022-12-18T07:05:43;48.37;;;26.87;;
14611;SDS011;7392;52.078;11.650;2022-12-18T07:08:11;46.60;;;24.33;;
14611;SDS011;7392;52.078;11.650;2022-12-18T07:10:42;51.83;;;27.50;;
14611;SDS011;7392;52.078;11.650;2022-12-18T07:13:15;48.93;;;25.50;;
14611;SDS011;7392;52.078;11.650;2022-12-18T07:15:43;48.93;;;27.03;;
14611;SDS011;7392;52.078;11.650;2022-12-18T07:18:11;45.43;;;23.23;;
14611;SDS011;7392;52.078;11.650;2022-12-18T07:20:40;42.17;;;22.90;;
14611;SDS011;7392;52.078;11.650;2022-12-18T07:23:08;41.00;;;22.00;;
14611;SDS011;7392;52.078;11.650;2022-12-18T07:25:36;42.17;;;22.87;;
14611;SDS011;7392;52.078;11.650;2022-12-18T07:28:04;40.03;;;22.90;;
14611;SDS011;7392;52.078;11.650;2022-12-18T07:30:32;40.93;;;22.93;;
14611;SDS011;7392;52.078;11.650;2022-12-18T07:33:00;45.97;;;23.13;;
14611;SDS011;7392;52.078;11.650;2022-12-18T07:35:28;45.50;;;23.73;;
14611;SDS011;7392;52.078;11.650;2022-12-18T07:37:57;41.00;;;22.77;;
14611;SDS011;7392;52.078;11.650;2022-12-18T07:40:26;42.73;;;23.13;;
14611;SDS011;7392;52.078;11.650;2022-12-18T07:42:54;44.70;;;24.43;;
14611;SDS011;7392;52.078;11.650;2022-12-18T07:45:22;44.20;;;22.70;;
14611;SDS011;7392;52.078;11.650;2022-12-18T07:47:50;39.90;;;22.60;;
14611;SDS011;7392;52.078;11.650;2022-12-18T07:50:17;38.00;;;20.80;;
14611;SDS011;7392;52.078;11.650;2022-12-18T07:52:46;37.87;;;22.47;;
14611;SDS011;7392;52.078;11.650;2022-12-18T07:55:15;52.93;;;25.70;;
14611;SDS011;7392;52.078;11.650;2022-12-18T07:57:43;42.57;;;23.77;;
14611;SDS011;7392;52.078;11.650;2022-12-18T08:00:17;41.70;;;23.03;;
14611;SDS011;7392;52.078;11.650;2022-12-18T08:02:46;43.27;;;22.57;;
14611;SDS011;7392;52.078;11.650;2022-12-18T08:05:14;44.43;;;23.80;;
14611;SDS011;7392;52.078;11.650;2022-12-18T08:07:42;44.57;;;24.43;;
14611;SDS011;7392;52.078;11.650;2022-12-18T08:10:10;41.67;;;23.33;;
14611;SDS011;7392;52.078;11.650;2022-12-18T08:12:39;35.97;;;21.00;;
14611;SDS011;7392;52.078;11.650;2022-12-18T08:15:07;40.07;;;21.63;;
14611;SDS011;7392;52.078;11.650;2022-12-18T08:17:35;39.97;;;22.70;;
14611;SDS011;7392;52.078;11.650;2022-12-18T08:20:03;42.70;;;23.63;;
14611;SDS011;7392;52.078;11.650;2022-12-18T08:22:33;39.80;;;21.53;;
14611;SDS011;7392;52.078;11.650;2022-12-18T08:25:01;37.33;;;21.67;;
14611;SDS011;7392;52.078;11.650;2022-12-18T08:27:30;32.37;;;20.07;;
14611;SDS011;7392;52.078;11.650;2022-12-18T08:29:59;34.33;;;20.07;;
14611;SDS011;7392;52.078;11.650;2022-12-18T08:32:27;30.03;;;18.20;;
14611;SDS011;7392;52.078;11.650;2022-12-18T08:34:55;37.37;;;19.90;;
14611;SDS011;7392;52.078;11.650;2022-12-18T08:37:23;33.10;;;19.70;;
14611;SDS011;7392;52.078;11.650;2022-12-18T08:39:51;32.87;;;19.43;;
14611;SDS011;7392;52.078;11.650;2022-12-18T08:42:19;36.60;;;21.00;;
14611;SDS011;7392;52.078;11.650;2022-12-18T08:45:06;39.17;;;23.33;;
14611;SDS011;7392;52.078;11.650;2022-12-18T08:47:35;37.10;;;21.47;;
14611;SDS011;7392;52.078;11.650;2022-12-18T08:50:03;36.50;;;20.40;;
14611;SDS011;7392;52.078;11.650;2022-12-18T08:52:32;37.73;;;21.50;;
14611;SDS011;7392;52.078;11.650;2022-12-18T08:55:00;33.63;;;19.70;;
14611;SDS011;7392;52.078;11.650;2022-12-18T08:57:28;34.47;;;19.77;;
14611;SDS011;7392;52.078;11.650;2022-12-18T08:59:56;37.20;;;20.70;;
14611;SDS011;7392;52.078;11.650;2022-12-18T09:02:25;37.90;;;21.93;;
14611;SDS011;7392;52.078;11.650;2022-12-18T09:04:53;41.73;;;21.77;;
14611;SDS011;7392;52.078;11.650;2022-12-18T09:07:23;36.47;;;21.27;;
14611;SDS011;7392;52.078;11.650;2022-12-18T09:09:51;33.30;;;19.70;;
14611;SDS011;7392;52.078;11.650;2022-12-18T09:12:18;34.93;;;20.03;;
14611;SDS011;7392;52.078;11.650;2022-12-18T09:14:46;36.50;;;19.70;;
14611;SDS011;7392;52.078;11.650;2022-12-18T09:17:14;34.10;;;20.03;;
14611;SDS011;7392;52.078;11.650;2022-12-18T09:19:44;32.57;;;20.60;;
14611;SDS011;7392;52.078;11.650;2022-12-18T09:22:11;39.40;;;21.97;;
14611;SDS011;7392;52.078;11.650;2022-12-18T09:24:39;38.70;;;21.53;;
14611;SDS011;7392;52.078;11.650;2022-12-18T09:27:07;34.27;;;19.77;;
14611;SDS011;7392;52.078;11.650;2022-12-18T09:29:35;43.47;;;23.13;;
14611;SDS011;7392;52.078;11.650;2022-12-18T09:32:03;41.03;;;22.67;;
14611;SDS011;7392;52.078;11.650;2022-12-18T09:34:31;41.40;;;22.43;;
14611;SDS011;7392;52.078;11.650;2022-12-18T09:37:00;42.47;;;22.47;;
14611;SDS011;7392;52.078;11.650;2022-12-18T09:39:28;37.23;;;21.30;;
14611;SDS011;7392;52.078;11.650;2022-12-18T09:41:57;38.60;;;21.33;;
14611;SDS011;7392;52.078;11.650;2022-12-18T09:44:26;40.07;;;23.00;;
14611;SDS011;7392;52.078;11.650;2022-12-18T09:46:59;40.03;;;20.90;;
14611;SDS011;7392;52.078;11.650;2022-12-18T09:49:36;36.27;;;22.17;;
14611;SDS011;7392;52.078;11.650;2022-12-18T09:52:11;37.27;;;21.70;;
14611;SDS011;7392;52.078;11.650;2022-12-18T09:54:45;38.97;;;23.67;;
14611;SDS011;7392;52.078;11.650;2022-12-18T09:57:17;37.77;;;22.10;;
14611;SDS011;7392;52.078;11.650;2022-12-18T09:59:49;37.83;;;22.17;;
14611;SDS011;7392;52.078;11.650;2022-12-18T10:02:21;35.87;;;21.83;;
14611;SDS011;7392;52.078;11.650;2022-12-18T10:04:55;38.77;;;21.47;;
14611;SDS011;7392;52.078;11.650;2022-12-18T10:07:32;43.47;;;23.37;;
14611;SDS011;7392;52.078;11.650;2022-12-18T10:10:13;38.03;;;21.93;;
14611;SDS011;7392;52.078;11.650;2022-12-18T10:12:51;37.63;;;21.80;;
14611;SDS011;7392;52.078;11.650;2022-12-18T10:15:31;36.00;;;21.87;;
14611;SDS011;7392;52.078;11.650;2022-12-18T10:18:06;34.20;;;21.63;;
14611;SDS011;7392;52.078;11.650;2022-12-18T10:20:48;33.50;;;21.17;;
14611;SDS011;7392;52.078;11.650;2022-12-18T10:23:21;33.47;;;20.00;;
14611;SDS011;7392;52.078;11.650;2022-12-18T10:25:55;34.07;;;20.67;;
14611;SDS011;7392;52.078;11.650;2022-12-18T10:28:29;35.17;;;19.83;;
14611;SDS011;7392;52.078;11.650;2022-12-18T10:30:58;35.83;;;21.33;;
14611;SDS011;7392;52.078;11.650;2022-12-18T10:33:28;31.53;;;18.67;;
14611;SDS011;7392;52.078;11.650;2022-12-18T10:35:57;33.37;;;20.40;;
14611;SDS011;7392;52.078;11.650;2022-12-18T10:38:28;34.33;;;21.07;;
14611;SDS011;7392;52.078;11.650;2022-12-18T10:40:58;34.97;;;21.20;;
14611;SDS011;7392;52.078;11.650;2022-12-18T10:43:28;33.20;;;20.47;;
14611;SDS011;7392;52.078;11.650;2022-12-18T10:45:58;30.17;;;18.80;;
14611;SDS011;7392;52.078;11.650;2022-12-18T10:48:33;28.27;;;18.83;;
14611;SDS011;7392;52.078;11.650;2022-12-18T10:51:04;28.33;;;17.47;;
14611;SDS011;7392;52.078;11.650;2022-12-18T10:53:40;32.00;;;19.20;;
14611;SDS011;7392;52.078;11.650;2022-12-18T10:56:10;27.37;;;17.50;;
14611;SDS011;7392;52.078;11.650;2022-12-18T10:58:38;29.13;;;18.73;;
14611;SDS011;7392;52.078;11.650;2022-12-18T11:01:08;26.10;;;17.00;;
14611;SDS011;7392;52.078;11.650;2022-12-18T11:03:39;25.87;;;17.43;;
14611;SDS011;7392;52.078;11.650;2022-12-18T11:06:09;28.70;;;17.93;;
14611;SDS011;7392;52.078;11.650;2022-12-18T11:08:39;29.10;;;17.67;;
14611;SDS011;7392;52.078;11.650;2022-12-18T11:11:15;25.87;;;15.93;;
14611;SDS011;7392;52.078;11.650;2022-12-18T11:13:50;27.57;;;16.50;;
14611;SDS011;7392;52.078;11.650;2022-12-18T11:16:26;26.77;;;16.57;;
14611;SDS011;7392;52.078;11.650;2022-12-18T11:19:07;26.70;;;16.47;;
14611;SDS011;7392;52.078;11.650;2022-12-18T11:21:49;23.83;;;15.90;;
14611;SDS011;7392;52.078;11.650;2022-12-18T11:24:21;25.17;;;15.70;;
14611;SDS011;7392;52.078;11.650;2022-12-18T11:26:54;26.53;;;16.93;;
14611;SDS011;7392;52.078;11.650;2022-12-18T11:29:28;27.70;;;16.83;;
14611;SDS011;7392;52.078;11.650;2022-12-18T11:32:20;25.70;;;16.67;;
14611;SDS011;7392;52.078;11.650;2022-12-18T11:34:59;26.97;;;16.83;;
14611;SDS011;7392;52.078;11.650;2022-12-18T11:37:31;26.47;;;15.53;;
14611;SDS011;7392;52.078;11.650;2022-12-18T11:40:03;26.03;;;16.40;;
14611;SDS011;7392;52.078;11.650;2022-12-18T11:42:40;24.37;;;15.80;;
14611;SDS011;7392;52.078;11.650;2022-12-18T11:45:20;29.17;;;17.57;;
14611;SDS011;7392;52.078;11.650;2022-12-18T11:47:55;27.83;;;17.03;;
14611;SDS011;7392;52.078;11.650;2022-12-18T11:50:28;28.57;;;17.10;;
14611;SDS011;7392;52.078;11.650;2022-12-18T11:53:00;26.97;;;16.93;;
14611;SDS011;7392;52.078;11.650;2022-12-18T11:55:36;24.70;;;16.70;;
14611;SDS011;7392;52.078;11.650;2022-12-18T11:58:11;26.10;;;16.53;;
14611;SDS011;7392;52.078;11.650;2022-12-18T12:00:49;21.00;;;15.17;;
14611;SDS011;7392;52.078;11.650;2022-12-18T12:03:24;25.30;;;17.27;;
14611;SDS011;7392;52.078;11.650;2022-12-18T12:06:09;25.77;;;16.67;;
14611;SDS011;7392;52.078;11.650;2022-12-18T12:08:46;24.87;;;16.47;;
14611;SDS011;7392;52.078;11.650;2022-12-18T12:11:27;28.57;;;17.60;;
14611;SDS011;7392;52.078;11.650;2022-12-18T12:14:10;21.97;;;14.70;;
14611;SDS011;7392;52.078;11.650;2022-12-18T12:16:46;23.33;;;16.47;;
14611;SDS011;7392;52.078;11.650;2022-12-18T12:19:29;27.10;;;15.97;;
14611;SDS011;7392;52.078;11.650;2022-12-18T12:22:07;29.07;;;17.67;;
14611;SDS011;7392;52.078;11.650;2022-12-18T12:24:47;25.33;;;16.63;;
14611;SDS011;7392;52.078;11.650;2022-12-18T12:27:25;27.13;;;17.20;;
14611;SDS011;7392;52.078;11.650;2022-12-18T12:30:03;29.33;;;17.50;;
14611;SDS011;7392;52.078;11.650;2022-12-18T12:32:43;24.87;;;16.33;;
14611;SDS011;7392;52.078;11.650;2022-12-18T12:35:24;25.23;;;17.03;;
14611;SDS011;7392;52.078;11.650;2022-12-18T12:38:02;26.07;;;17.10;;
14611;SDS011;7392;52.078;11.650;2022-12-18T12:40:37;24.83;;;15.43;;
14611;SDS011;7392;52.078;11.650;2022-12-18T12:43:31;27.73;;;17.27;;
14611;SDS011;7392;52.078;11.650;2022-12-18T12:46:03;27.13;;;17.53;;
14611;SDS011;7392;52.078;11.650;2022-12-18T12:48:35;26.00;;;17.27;;
14611;SDS011;7392;52.078;11.650;2022-12-18T12:51:09;27.10;;;15.40;;
14611;SDS011;7392;52.078;11.650;2022-12-18T12:53:41;23.20;;;15.83;;
14611;SDS011;7392;52.078;11.650;2022-12-18T12:56:11;28.03;;;16.70;;
14611;SDS011;7392;52.078;11.650;2022-12-18T12:58:45;26.70;;;17.50;;
14611;SDS011;7392;52.078;11.650;2022-12-18T13:01:23;25.53;;;16.77;;
14611;SDS011;7392;52.078;11.650;2022-12-18T13:03:57;24.63;;;16.77;;
14611;SDS011;7392;52.078;11.650;2022-12-18T13:06:37;31.33;;;17.73;;
14611;SDS011;7392;52.078;11.650;2022-12-18T13:09:11;26.27;;;16.73;;
14611;SDS011;7392;52.078;11.650;2022-12-18T13:11:40;25.53;;;16.13;;
14611;SDS011;7392;52.078;11.650;2022-12-18T13:14:29;27.67;;;16.13;;
14611;SDS011;7392;52.078;11.650;2022-12-18T13:20:08;23.13;;;14.73;;
14611;SDS011;7392;52.078;11.650;2022-12-18T13:22:40;23.70;;;15.93;;
14611;SDS011;7392;52.078;11.650;2022-12-18T13:28:07;25.63;;;14.77;;
14611;SDS011;7392;52.078;11.650;2022-12-18T13:30:45;21.87;;;14.40;;
14611;SDS011;7392;52.078;11.650;2022-12-18T13:36:34;23.60;;;15.63;;
14611;SDS011;7392;52.078;11.650;2022-12-18T13:39:08;21.80;;;14.73;;
14611;SDS011;7392;52.078;11.650;2022-12-18T13:41:39;25.37;;;15.43;;
14611;SDS011;7392;52.078;11.650;2022-12-18T13:44:11;26.10;;;16.37;;
14611;SDS011;7392;52.078;11.650;2022-12-18T13:46:45;25.73;;;16.87;;
14611;SDS011;7392;52.078;11.650;2022-12-18T13:49:19;24.73;;;16.27;;
14611;SDS011;7392;52.078;11.650;2022-12-18T13:51:50;26.83;;;16.73;;
14611;SDS011;7392;52.078;11.650;2022-12-18T13:54:25;23.57;;;15.13;;
14611;SDS011;7392;52.078;11.650;2022-12-18T13:56:57;24.70;;;15.83;;
14611;SDS011;7392;52.078;11.650;2022-12-18T13:59:26;23.07;;;15.40;;
14611;SDS011;7392;52.078;11.650;2022-12-18T14:02:12;25.73;;;16.30;;
14611;SDS011;7392;52.078;11.650;2022-12-18T14:04:44;26.20;;;15.83;;
14611;SDS011;7392;52.078;11.650;2022-12-18T14:07:13;25.47;;;15.90;;
14611;SDS011;7392;52.078;11.650;2022-12-18T14:09:45;25.50;;;15.40;;
14611;SDS011;7392;52.078;11.650;2022-12-18T14:12:16;28.00;;;15.43;;
14611;SDS011;7392;52.078;11.650;2022-12-18T14:15:03;26.17;;;16.40;;
14611;SDS011;7392;52.078;11.650;2022-12-18T14:17:34;25.77;;;16.00;;
14611;SDS011;7392;52.078;11.650;2022-12-18T14:20:04;27.47;;;15.67;;
14611;SDS011;7392;52.078;11.650;2022-12-18T14:22:42;29.87;;;17.57;;
14611;SDS011;7392;52.078;11.650;2022-12-18T14:25:16;32.40;;;17.03;;
14611;SDS011;7392;52.078;11.650;2022-12-18T14:27:47;30.63;;;17.70;;
14611;SDS011;7392;52.078;11.650;2022-12-18T14:30:27;28.87;;;17.93;;
14611;SDS011;7392;52.078;11.650;2022-12-18T14:33:03;30.43;;;17.93;;
14611;SDS011;7392;52.078;11.650;2022-12-18T14:35:32;31.10;;;17.90;;
14611;SDS011;7392;52.078;11.650;2022-12-18T14:38:14;35.60;;;19.33;;
14611;SDS011;7392;52.078;11.650;2022-12-18T14:40:51;30.93;;;18.20;;
14611;SDS011;7392;52.078;11.650;2022-12-18T14:43:20;30.63;;;17.50;;
14611;SDS011;7392;52.078;11.650;2022-12-18T14:45:48;35.17;;;20.73;;
14611;SDS011;7392;52.078;11.650;2022-12-18T14:48:20;33.63;;;20.17;;
14611;SDS011;7392;52.078;11.650;2022-12-18T14:50:56;37.40;;;19.70;;
14611;SDS011;7392;52.078;11.650;2022-12-18T14:53:37;35.27;;;19.97;;
14611;SDS011;7392;52.078;11.650;2022-12-18T14:56:18;35.93;;;19.00;;
14611;SDS011;7392;52.078;11.650;2022-12-18T14:58:48;34.20;;;20.23;;
14611;SDS011;7392;52.078;11.650;2022-12-18T15:01:21;33.10;;;19.13;;